UKLR/RWN METAR and TAF weather

Enter ICAO airport designator
Station Type Date Time Source
UKLR METAR 2020/08/10 15:00 UTC NOAA

UKLR 101500Z 36003MPS 330V040 CAVOK 27/13 Q1016 NOSIG


Station Type Date Time Source
UKLR Decoded METAR 2020/08/10 15:00 UTC NOAA

Rivne, Ukraine (UKLR) 50-35N 026-08E
Aug 10, 2020 - 11:00 AM EDT / 2020.08.10 1500 UTC
Wind: from the N (360 degrees) at 7 MPH (6 KT) (direction variable):0
Visibility: greater than 7 mile(s):0
Temperature: 80 F (27 C)
Dew Point: 55 F (13 C)
Relative Humidity: 41%
Pressure (altimeter): 30.00 in. Hg (1016 hPa)
ob: UKLR 101500Z 36003MPS 330V040 CAVOK 27/13 Q1016 NOSIG
cycle: 15

Station Type Date Time Source
UKLR TAF 2019/08/16 12:15 UTC NOAA

TAF TAF UKLR 161105Z 1612/1821 35003MPS 9999 BKN020 SCT023CB

Example: see airport list